Time;durP1;ratioP1;P1;durP2;ratioP2;P2;SDS_P1;SDS_P2;PMS_P1;PMS_P2;Temp;Humidity;BMP_temperature;BMP_pressure;BME280_temperature;BME280_humidity;BME280_pressure;Samples;Min_cycle;Max_cycle;Signal;HPM_P1;HPM_P2
2021/06/16 00:01:38;;;;;;;4.53;2.00;;;;;;;-138.14;100.00;63448.66;4945059;28;20190;-78
2021/06/16 00:04:06;;;;;;;7.07;2.20;;;;;;;-138.14;100.00;63448.66;4898794;29;20201;-78
2021/06/16 00:06:33;;;;;;;3.33;1.90;;;;;;;-138.14;100.00;63448.66;4913164;29;20940;-78
2021/06/16 00:09:01;;;;;;;4.37;2.10;;;;;;;-138.14;100.00;63448.66;4896883;29;20234;-78
2021/06/16 00:11:26;;;;;;;4.17;2.20;;;;;;;-138.14;100.00;63448.66;4912536;29;20210;-77
2021/06/16 00:13:54;;;;;;;3.70;2.10;;;;;;;-138.14;100.00;63448.66;4897674;29;20211;-78
2021/06/16 00:16:21;;;;;;;2.90;2.00;;;;;;;-138.14;100.00;63448.66;4881858;29;20206;-77
2021/06/16 00:18:52;;;;;;;3.83;2.23;;;;;;;-138.14;100.00;63448.66;4898458;29;20186;-78
2021/06/16 00:21:19;;;;;;;3.03;2.17;;;;;;;-138.14;100.00;63448.66;4896505;29;20211;-78
2021/06/16 00:23:47;;;;;;;2.90;2.23;;;;;;;-138.14;100.00;63448.66;4913053;29;20182;-78
2021/06/16 00:26:13;;;;;;;4.00;2.07;;;;;;;-138.14;100.00;63448.66;4928714;29;20616;-78
2021/06/16 00:28:39;;;;;;;4.25;2.38;;;;;;;-138.14;100.00;63448.66;4897294;29;20199;-78
2021/06/16 00:31:07;;;;;;;4.73;2.37;;;;;;;-138.14;100.00;63448.66;4927905;29;20211;-78
2021/06/16 00:33:35;;;;;;;4.33;2.27;;;;;;;-138.14;100.00;63448.66;4913523;29;20218;-77
2021/06/16 00:36:00;;;;;;;4.53;2.40;;;;;;;-138.14;100.00;63448.66;4928747;29;20190;-77
2021/06/16 00:38:27;;;;;;;3.20;2.37;;;;;;;-138.14;100.00;63448.66;4897139;29;20191;-76
2021/06/16 00:40:57;;;;;;;3.53;2.47;;;;;;;-138.14;100.00;63448.66;4896757;28;20187;-77
2021/06/16 00:43:23;;;;;;;7.27;2.80;;;;;;;-138.14;100.00;63448.66;4912696;29;20244;-78
2021/06/16 00:45:52;;;;;;;5.30;2.50;;;;;;;-138.14;100.00;63448.66;4928284;29;20199;-75
2021/06/16 00:48:20;;;;;;;5.33;2.27;;;;;;;-138.14;100.00;63448.66;4913092;29;20245;-76
2021/06/16 00:50:46;;;;;;;5.23;2.40;;;;;;;-138.14;100.00;63448.66;4912048;28;20579;-77
2021/06/16 00:53:11;;;;;;;4.60;2.27;;;;;;;-138.14;100.00;63448.66;4945620;29;20207;-78
2021/06/16 00:55:38;;;;;;;9.00;2.67;;;;;;;-138.14;100.00;63448.66;4912779;29;20195;-77
2021/06/16 00:58:13;;;;;;;2.83;2.33;;;;;;;-138.14;100.00;63448.66;4915078;29;20270;-78
2021/06/16 01:00:52;;;;;;;2.83;2.30;;;;;;;-138.14;100.00;63448.66;4928370;28;20229;-78
2021/06/16 01:03:29;;;;;;;3.67;2.33;;;;;;;-138.14;100.00;63448.66;4917142;29;20194;-77
2021/06/16 01:06:08;;;;;;;5.10;2.60;;;;;;;-138.14;100.00;63448.66;4915774;29;20277;-78
2021/06/16 01:08:44;;;;;;;5.70;2.67;;;;;;;-138.14;100.00;63448.66;4916507;29;20182;-79
2021/06/16 01:11:10;;;;;;;5.20;2.50;;;;;;;-138.14;100.00;63448.66;4900223;29;20294;-78
2021/06/16 01:13:57;;;;;;;5.83;2.80;;;;;;;-138.14;100.00;63448.66;4931461;29;20701;-79
2021/06/16 01:16:36;;;;;;;3.90;2.37;;;;;;;-138.14;100.00;63448.66;4901262;29;20194;-78
2021/06/16 01:19:35;;;;;;;3.67;2.63;;;;;;;-138.14;100.00;63448.66;4916781;29;20250;-77
2021/06/16 01:22:05;;;;;;;3.87;2.40;;;;;;;-138.14;100.00;63448.66;4930204;29;20234;-78
2021/06/16 01:24:31;;;;;;;3.70;2.70;;;;;;;-138.14;100.00;63448.66;4916161;29;20730;-78
2021/06/16 01:26:58;;;;;;;3.17;2.70;;;;;;;-138.14;100.00;63448.66;4931406;29;20233;-79
2021/06/16 01:29:31;;;;;;;4.00;2.50;;;;;;;-138.14;100.00;63448.66;4915764;29;20223;-77
2021/06/16 01:31:56;;;;;;;4.00;2.50;;;;;;;-138.14;100.00;63448.66;4926309;28;20724;-77
2021/06/16 01:34:25;;;;;;;3.10;2.60;;;;;;;-138.14;100.00;63448.66;4918306;28;20218;-78
2021/06/16 01:36:56;;;;;;;4.20;2.57;;;;;;;-138.14;100.00;63448.66;4934828;28;20345;-78
2021/06/16 01:39:25;;;;;;;4.10;2.70;;;;;;;-138.14;100.00;63448.66;4918954;28;20676;-78
2021/06/16 01:41:54;;;;;;;3.80;2.67;;;;;;;-138.14;100.00;63448.66;4949940;28;20194;-78
2021/06/16 01:44:20;;;;;;;5.40;2.63;;;;;;;-138.14;100.00;63448.66;4919178;28;20670;-78
2021/06/16 01:46:48;;;;;;;4.87;2.50;;;;;;;-138.14;100.00;63448.66;4918449;28;20269;-78
2021/06/16 01:49:16;;;;;;;4.03;2.63;;;;;;;-138.14;100.00;63448.66;4919660;28;20186;-78
2021/06/16 01:51:44;;;;;;;2.37;2.17;;;;;;;-138.14;100.00;63448.66;4917238;28;20207;-78
2021/06/16 01:54:09;;;;;;;5.17;3.17;;;;;;;-138.14;100.00;63448.66;4934226;28;20763;-78
2021/06/16 01:56:35;;;;;;;3.17;2.47;;;;;;;-138.14;100.00;63448.66;4933991;28;20190;-77
2021/06/16 01:59:06;;;;;;;4.03;3.00;;;;;;;-138.14;100.00;63448.66;4912785;29;20221;-77
2021/06/16 02:01:34;;;;;;;4.73;2.93;;;;;;;-138.14;100.00;63448.66;4931463;28;20206;-79
2021/06/16 02:04:02;;;;;;;5.23;3.30;;;;;;;-138.14;100.00;63448.66;4934522;28;20301;-77
2021/06/16 02:06:33;;;;;;;5.57;2.97;;;;;;;-138.14;100.00;63448.66;4918723;28;20224;-78
2021/06/16 02:08:59;;;;;;;5.63;3.00;;;;;;;-138.14;100.00;63448.66;4934282;28;20685;-78
2021/06/16 02:11:27;;;;;;;3.80;2.80;;;;;;;-138.14;100.00;63448.66;4917659;28;20284;-78
2021/06/16 02:14:01;;;;;;;5.37;3.20;;;;;;;-138.14;100.00;63448.66;4933669;28;20333;-78
2021/06/16 02:16:42;;;;;;;6.50;3.50;;;;;;;-138.14;100.00;63448.66;4918116;28;20251;-78
2021/06/16 02:19:10;;;;;;;5.27;3.10;;;;;;;-138.14;100.00;63448.66;4919244;28;20209;-78
2021/06/16 02:21:36;;;;;;;4.13;3.17;;;;;;;-138.14;100.00;63448.66;4917443;28;20194;-78
2021/06/16 02:24:02;;;;;;;4.17;3.00;;;;;;;-138.14;100.00;63448.66;4918411;28;20265;-77
2021/06/16 02:26:29;;;;;;;4.20;2.67;;;;;;;-138.14;100.00;63448.66;4966815;28;20625;-77
2021/06/16 02:28:55;;;;;;;4.27;3.30;;;;;;;-138.14;100.00;63448.66;4934384;28;20285;-77
2021/06/16 02:31:25;;;;;;;3.57;3.20;;;;;;;-138.14;100.00;63448.66;4917440;28;20210;-77
2021/06/16 02:33:51;;;;;;;3.57;3.00;;;;;;;-138.14;100.00;63448.66;4918007;28;20218;-77
2021/06/16 02:36:17;;;;;;;6.60;3.30;;;;;;;-138.14;100.00;63448.66;4918010;28;20194;-79
2021/06/16 02:38:44;;;;;;;3.50;3.13;;;;;;;-138.14;100.00;63448.66;4933924;28;20210;-77
2021/06/16 02:41:12;;;;;;;4.47;3.37;;;;;;;-138.14;100.00;63448.66;4917190;28;20212;-78
2021/06/16 02:43:37;;;;;;;4.63;2.97;;;;;;;-138.14;100.00;63448.66;4917486;28;20714;-77
2021/06/16 02:46:05;;;;;;;4.77;3.47;;;;;;;-138.14;100.00;63448.66;4949251;28;20190;-78
2021/06/16 02:48:33;;;;;;;6.17;3.60;;;;;;;-138.14;100.00;63448.66;4949572;28;20242;-78
2021/06/16 02:50:59;;;;;;;5.47;3.50;;;;;;;-138.14;100.00;63448.66;4916601;28;20281;-78
2021/06/16 02:53:26;;;;;;;6.50;3.47;;;;;;;-138.14;100.00;63448.66;4902138;28;20593;-78
2021/06/16 02:55:59;;;;;;;5.23;3.40;;;;;;;-138.14;100.00;63448.66;4917305;28;20201;-79
2021/06/16 02:58:24;;;;;;;5.07;3.37;;;;;;;-138.14;100.00;63448.66;4917910;28;20194;-78
2021/06/16 03:00:58;;;;;;;5.47;3.10;;;;;;;-138.14;100.00;63448.66;4916154;28;20189;-77
2021/06/16 03:03:26;;;;;;;5.30;3.20;;;;;;;-138.14;100.00;63448.66;4916398;28;20861;-78
2021/06/16 03:05:52;;;;;;;3.87;2.93;;;;;;;-138.14;100.00;63448.66;4929448;29;20254;-77
2021/06/16 03:08:20;;;;;;;5.77;3.30;;;;;;;-138.14;100.00;63448.66;4945315;29;20214;-78
2021/06/16 03:10:46;;;;;;;4.27;3.10;;;;;;;-138.14;100.00;63448.66;4928716;28;20191;-77
2021/06/16 03:13:11;;;;;;;4.70;3.23;;;;;;;-138.14;100.00;63448.66;4929365;29;20206;-77
2021/06/16 03:15:40;;;;;;;5.33;3.43;;;;;;;-138.14;100.00;63448.66;4931755;28;20194;-78
2021/06/16 03:18:05;;;;;;;3.30;3.00;;;;;;;-138.14;100.00;63448.66;4916948;28;20257;-77
2021/06/16 03:20:31;;;;;;;6.13;3.10;;;;;;;-138.14;100.00;63448.66;4931295;28;20202;-78
2021/06/16 03:22:59;;;;;;;5.40;3.30;;;;;;;-138.14;100.00;63448.66;4948826;28;20198;-77
2021/06/16 03:25:24;;;;;;;3.70;2.87;;;;;;;-138.14;100.00;63448.66;4932128;28;20261;-77
2021/06/16 03:27:52;;;;;;;5.93;3.17;;;;;;;-138.14;100.00;63448.66;4932767;28;20733;-77
2021/06/16 03:30:24;;;;;;;4.43;2.80;;;;;;;-138.14;100.00;63448.66;4931177;28;20186;-78
2021/06/16 03:32:54;;;;;;;3.43;2.70;;;;;;;-138.14;100.00;63448.66;4917956;28;20218;-77
2021/06/16 03:35:25;;;;;;;3.37;2.80;;;;;;;-138.14;100.00;63448.66;4914318;29;20183;-77
2021/06/16 03:37:51;;;;;;;4.13;2.77;;;;;;;-138.14;100.00;63448.66;4913016;29;20282;-78
2021/06/16 03:40:16;;;;;;;4.10;2.83;;;;;;;-138.14;100.00;63448.66;4930724;29;20586;-78
2021/06/16 03:42:42;;;;;;;3.93;2.90;;;;;;;-138.14;100.00;63448.66;4897227;29;20210;-79
2021/06/16 03:45:08;;;;;;;3.33;2.80;;;;;;;-138.14;100.00;63448.66;4897604;29;20187;-77
2021/06/16 03:47:35;;;;;;;3.87;2.90;;;;;;;-138.14;100.00;63448.66;4907370;28;20728;-78
2021/06/16 03:50:01;;;;;;;3.70;3.10;;;;;;;-138.14;100.00;63448.66;4915356;28;20190;-78
2021/06/16 03:52:26;;;;;;;5.13;2.87;;;;;;;-138.14;100.00;63448.66;4931472;28;20216;-77
2021/06/16 03:54:54;;;;;;;3.10;2.80;;;;;;;-138.14;100.00;63448.66;4931644;28;20218;-78
2021/06/16 03:57:24;;;;;;;4.67;2.60;;;;;;;-138.14;100.00;63448.66;4914008;28;20186;-77
2021/06/16 03:59:50;;;;;;;5.47;2.87;;;;;;;-138.14;100.00;63448.66;4899779;28;20182;-78
2021/06/16 04:02:20;;;;;;;3.40;2.90;;;;;;;-138.14;100.00;63448.66;4915134;28;20197;-77
2021/06/16 04:04:46;;;;;;;5.10;3.20;;;;;;;-138.14;100.00;63448.66;4932174;28;20206;-78
2021/06/16 04:07:16;;;;;;;5.00;2.97;;;;;;;-138.14;100.00;63448.66;4929206;28;20186;-78
2021/06/16 04:09:41;;;;;;;3.10;2.80;;;;;;;-138.14;100.00;63448.66;4914608;29;20183;-77
2021/06/16 04:12:09;;;;;;;3.97;2.90;;;;;;;-138.14;100.00;63448.66;4911887;28;20218;-78
2021/06/16 04:14:35;;;;;;;3.80;2.90;;;;;;;-138.14;100.00;63448.66;4912372;29;20211;-78
2021/06/16 04:17:00;;;;;;;4.10;2.80;;;;;;;-138.14;100.00;63448.66;4912389;29;20198;-77
2021/06/16 04:19:28;;;;;;;5.53;3.50;;;;;;;-138.14;100.00;63448.66;4913270;29;20246;-78
2021/06/16 04:21:57;;;;;;;5.87;3.00;;;;;;;-138.14;100.00;63448.66;4912148;29;20276;-78
2021/06/16 04:24:27;;;;;;;4.17;2.97;;;;;;;-138.14;100.00;63448.66;4928988;29;20183;-78
2021/06/16 04:26:55;;;;;;;4.20;3.30;;;;;;;-138.14;100.00;63448.66;4913380;29;20254;-78
2021/06/16 04:29:21;;;;;;;3.70;3.10;;;;;;;-138.14;100.00;63448.66;4928860;29;20206;-77
2021/06/16 04:31:49;;;;;;;4.07;2.70;;;;;;;-138.14;100.00;63448.66;4915526;28;20210;-78
2021/06/16 04:34:17;;;;;;;3.33;2.60;;;;;;;-138.14;100.00;63448.66;4901785;29;20955;-77
2021/06/16 04:36:44;;;;;;;5.28;3.22;;;;;;;-138.14;100.00;63448.66;4931315;29;20180;-77
2021/06/16 04:39:10;;;;;;;3.87;3.03;;;;;;;-138.14;100.00;63448.66;4916741;29;20179;-78
2021/06/16 04:41:38;;;;;;;5.00;3.03;;;;;;;-138.14;100.00;63448.66;4915690;29;20202;-78
2021/06/16 04:44:04;;;;;;;4.20;3.00;;;;;;;-138.14;100.00;63448.66;4916459;29;20213;-77
2021/06/16 04:46:32;;;;;;;6.70;3.07;;;;;;;-138.14;100.00;63448.66;4932860;28;20195;-76
2021/06/16 04:48:59;;;;;;;5.00;3.00;;;;;;;-138.14;100.00;63448.66;4934586;28;20201;-79
2021/06/16 04:51:27;;;;;;;3.77;2.80;;;;;;;-138.14;100.00;63448.66;4919249;29;20687;-75
2021/06/16 04:53:55;;;;;;;3.93;2.70;;;;;;;-138.14;100.00;63448.66;4917488;29;20203;-78
2021/06/16 04:56:21;;;;;;;4.25;2.83;;;;;;;-138.14;100.00;63448.66;4900660;29;20202;-79
2021/06/16 04:58:46;;;;;;;3.67;2.40;;;;;;;-138.14;100.00;63448.66;4932215;29;20191;-79
2021/06/16 05:01:14;;;;;;;3.45;2.30;;;;;;;-138.14;100.00;63448.66;4915341;29;20195;-78
2021/06/16 05:03:40;;;;;;;2.65;2.00;;;;;;;-138.14;100.00;63448.66;4900926;29;20246;-78
2021/06/16 05:06:05;;;;;;;4.03;2.20;;;;;;;-138.14;100.00;63448.66;4915950;29;20194;-79
2021/06/16 05:08:31;;;;;;;4.15;2.20;;;;;;;-138.14;100.00;63448.66;4934773;29;20195;-77
2021/06/16 05:10:59;;;;;;;3.40;1.95;;;;;;;-138.14;100.00;63448.66;4916013;29;20197;-77
2021/06/16 05:13:25;;;;;;;2.95;1.70;;;;;;;-138.14;100.00;63448.66;4916971;29;20691;-73
2021/06/16 05:15:53;;;;;;;4.43;1.90;;;;;;;-138.14;100.00;63448.66;4900975;29;20238;-80
2021/06/16 05:18:21;;;;;;;4.88;1.95;;;;;;;-138.14;100.00;63448.66;4918188;29;20249;-79
2021/06/16 05:20:47;;;;;;;16.00;10.98;;;;;;;-138.14;100.00;63448.66;4925030;29;20179;-80
2021/06/16 05:23:12;;;;;;;5.60;3.00;;;;;;;-138.14;100.00;63448.66;4917821;29;20186;-80
2021/06/16 05:25:43;;;;;;;2.88;1.63;;;;;;;-138.14;100.00;63448.66;4949132;28;20186;-78
2021/06/16 05:28:09;;;;;;;2.70;1.33;;;;;;;-138.14;100.00;63448.66;4971117;28;20202;-79
2021/06/16 05:30:36;;;;;;;3.90;1.48;;;;;;;-138.14;100.00;63448.66;4921358;28;20185;-80
2021/06/16 05:33:04;;;;;;;2.35;1.50;;;;;;;-138.14;100.00;63448.66;4934504;28;20206;-80
2021/06/16 05:35:30;;;;;;;3.65;1.60;;;;;;;-138.14;100.00;63448.66;4937929;28;20190;-79
2021/06/16 05:38:00;;;;;;;3.53;1.40;;;;;;;-138.14;100.00;63448.66;4953821;28;20249;-79
2021/06/16 05:40:29;;;;;;;6.15;2.08;;;;;;;-138.14;100.00;63448.66;4936399;28;20189;-81
2021/06/16 05:42:54;;;;;;;4.22;1.50;;;;;;;-138.14;100.00;63448.66;4954967;28;20724;-81
2021/06/16 05:45:22;;;;;;;3.22;1.80;;;;;;;-138.14;100.00;63448.66;4939125;28;20190;-81
2021/06/16 05:47:48;;;;;;;4.07;2.35;;;;;;;-138.14;100.00;63448.66;4922605;28;20688;-80
2021/06/16 05:50:16;;;;;;;2.40;1.40;;;;;;;-138.14;100.00;63448.66;4970583;28;20174;-81
2021/06/16 05:52:45;;;;;;;3.47;1.83;;;;;;;-138.14;100.00;63448.66;4937675;28;20565;-79
2021/06/16 05:55:10;;;;;;;4.68;1.77;;;;;;;-138.14;100.00;63448.66;4953691;28;20566;-80
2021/06/16 05:57:36;;;;;;;3.47;1.90;;;;;;;-138.14;100.00;63448.66;4938134;28;20191;-80
2021/06/16 06:00:06;;;;;;;3.85;1.80;;;;;;;-138.14;100.00;63448.66;4937226;28;20195;-80
2021/06/16 06:02:32;;;;;;;5.65;2.20;;;;;;;-138.14;100.00;63448.66;4955280;28;20233;-80
2021/06/16 06:05:00;;;;;;;3.33;1.75;;;;;;;-138.14;100.00;63448.66;4956323;28;20261;-80
2021/06/16 06:07:25;;;;;;;4.32;1.80;;;;;;;-138.14;100.00;63448.66;4939684;28;20245;-81
2021/06/16 06:09:53;;;;;;;4.03;2.13;;;;;;;-138.14;100.00;63448.66;4938872;28;20186;-78
2021/06/16 06:12:21;;;;;;;4.28;2.00;;;;;;;-138.14;100.00;63448.66;4937854;28;20221;-78
2021/06/16 06:14:46;;;;;;;2.15;1.95;;;;;;;-138.14;100.00;63448.66;4922150;28;20217;-79
2021/06/16 06:17:14;;;;;;;2.78;1.98;;;;;;;-138.14;100.00;63448.66;4970917;28;20182;-81
2021/06/16 06:19:49;;;;;;;3.15;1.90;;;;;;;-138.14;100.00;63448.66;4938409;28;20290;-78
2021/06/16 06:22:22;;;;;;;6.43;2.10;;;;;;;-138.14;100.00;63448.66;4970658;28;20197;-80
2021/06/16 06:24:50;;;;;;;3.22;2.00;;;;;;;-138.14;100.00;63448.66;4954127;28;20186;-80
2021/06/16 06:27:20;;;;;;;4.60;2.10;;;;;;;-138.14;100.00;63448.66;4953572;28;20560;-79
2021/06/16 06:29:51;;;;;;;7.30;2.30;;;;;;;-138.14;100.00;63448.66;4938434;28;20332;-80
2021/06/16 06:32:18;;;;;;;3.72;2.30;;;;;;;-138.14;100.00;63448.66;4937012;28;20206;-79
2021/06/16 06:34:44;;;;;;;5.88;2.00;;;;;;;-138.14;100.00;63448.66;4953466;28;20202;-81
2021/06/16 06:37:11;;;;;;;3.38;2.30;;;;;;;-138.14;100.00;63448.66;4937129;28;20197;-81
2021/06/16 06:39:41;;;;;;;3.63;1.85;;;;;;;-138.14;100.00;63448.66;4921988;28;20218;-80
2021/06/16 06:42:06;;;;;;;3.30;2.05;;;;;;;-138.14;100.00;63448.66;4955320;28;20229;-80
2021/06/16 06:44:34;;;;;;;3.92;2.20;;;;;;;-138.14;100.00;63448.66;4921537;28;20733;-80
2021/06/16 06:47:05;;;;;;;3.30;2.15;;;;;;;-138.14;100.00;63448.66;4953776;28;20749;-80
2021/06/16 06:49:30;;;;;;;3.50;2.03;;;;;;;-138.14;100.00;63448.66;4938129;28;20574;-82
2021/06/16 06:51:56;;;;;;;4.18;2.20;;;;;;;-138.14;100.00;63448.66;4952787;28;20221;-81
2021/06/16 06:54:21;;;;;;;3.70;1.90;;;;;;;-138.14;100.00;63448.66;4937612;28;20210;-80
2021/06/16 06:56:47;;;;;;;2.63;1.85;;;;;;;-138.14;100.00;63448.66;4938379;28;20245;-80
2021/06/16 06:59:20;;;;;;;3.47;1.85;;;;;;;-138.14;100.00;63448.66;4953127;28;20205;-80
2021/06/16 07:01:50;;;;;;;1.88;1.65;;;;;;;-138.14;100.00;63448.66;4935367;28;20285;-80
2021/06/16 07:04:15;;;;;;;4.40;2.05;;;;;;;-138.14;100.00;63448.66;4903199;29;20179;-80
2021/06/16 07:06:43;;;;;;;3.85;1.80;;;;;;;-138.14;100.00;63448.66;4918323;29;20187;-82
2021/06/16 07:09:09;;;;;;;3.38;1.88;;;;;;;-138.14;100.00;63448.66;4934028;29;20246;-81
2021/06/16 07:11:35;;;;;;;2.42;1.90;;;;;;;-138.14;100.00;63448.66;4918844;29;20203;-81
2021/06/16 07:14:02;;;;;;;2.58;1.63;;;;;;;-138.14;100.00;63448.66;4935118;29;20212;-81
2021/06/16 07:16:28;;;;;;;3.38;1.70;;;;;;;-138.14;100.00;63448.66;4923206;29;20191;-81
2021/06/16 07:18:53;;;;;;;2.42;1.75;;;;;;;-138.14;100.00;63448.66;4903958;29;20182;-81
2021/06/16 07:21:24;;;;;;;3.33;1.50;;;;;;;-138.14;100.00;63448.66;4918331;29;20609;-80
2021/06/16 07:23:52;;;;;;;2.53;1.40;;;;;;;-138.14;100.00;63448.66;4951225;29;20218;-81
2021/06/16 07:26:17;;;;;;;2.97;1.52;;;;;;;-138.14;100.00;63448.66;4942322;28;20278;-79
2021/06/16 07:28:45;;;;;;;3.28;1.48;;;;;;;-138.14;100.00;63448.66;4936633;28;20197;-81
2021/06/16 07:31:13;;;;;;;2.05;1.55;;;;;;;-138.14;100.00;63448.66;4920171;28;20205;-79
2021/06/16 07:33:38;;;;;;;2.95;1.52;;;;;;;-138.14;100.00;63448.66;4953105;28;20915;-80
2021/06/16 07:36:07;;;;;;;2.25;1.40;;;;;;;-138.14;100.00;63448.66;4920911;28;20194;-80
2021/06/16 07:38:32;;;;;;;1.98;1.42;;;;;;;-138.14;100.00;63448.66;4920739;28;20285;-81
2021/06/16 07:41:00;;;;;;;2.72;1.40;;;;;;;-138.14;100.00;63448.66;4935353;28;20170;-82
2021/06/16 07:43:26;;;;;;;3.13;1.50;;;;;;;-138.14;100.00;63448.66;4937128;28;20269;-79
2021/06/16 07:45:51;;;;;;;2.50;1.40;;;;;;;-138.14;100.00;63448.66;4935405;28;20396;-81
2021/06/16 07:48:17;;;;;;;2.15;1.20;;;;;;;-138.14;100.00;63448.66;4936511;28;20178;-81
2021/06/16 07:50:42;;;;;;;2.75;1.20;;;;;;;-138.14;100.00;63448.66;4919738;28;20182;-80
2021/06/16 07:53:15;;;;;;;2.60;1.30;;;;;;;-138.14;100.00;63448.66;4952955;28;20210;-82
2021/06/16 07:55:42;;;;;;;2.53;1.33;;;;;;;-138.14;100.00;63448.66;4937452;28;20202;-81
2021/06/16 07:58:11;;;;;;;2.53;1.40;;;;;;;-138.14;100.00;63448.66;4921213;28;20193;-79
2021/06/16 08:00:36;;;;;;;3.60;1.40;;;;;;;-138.14;100.00;63448.66;4935429;28;20209;-80
2021/06/16 08:03:04;;;;;;;3.88;1.75;;;;;;;-138.14;100.00;63448.66;4952527;28;20202;-80
2021/06/16 08:05:34;;;;;;;3.65;1.40;;;;;;;-138.14;100.00;63448.66;4948604;28;20187;-82
2021/06/16 08:08:02;;;;;;;2.10;1.17;;;;;;;-138.14;100.00;63448.66;4917249;29;20217;-83
2021/06/16 08:10:30;;;;;;;3.03;1.42;;;;;;;-138.14;100.00;63448.66;4940392;29;20167;-81
2021/06/16 08:12:56;;;;;;;2.13;1.27;;;;;;;-138.14;100.00;63448.66;4937172;29;20322;-81
2021/06/16 08:15:22;;;;;;;2.03;1.40;;;;;;;-138.14;100.00;63448.66;4921070;29;20261;-80
2021/06/16 08:17:49;;;;;;;2.53;1.50;;;;;;;-138.14;100.00;63448.66;4905428;29;20179;-81
2021/06/16 08:20:18;;;;;;;2.33;1.45;;;;;;;-138.14;100.00;63448.66;4952954;28;20237;-80
2021/06/16 08:22:43;;;;;;;2.00;1.30;;;;;;;-138.14;100.00;63448.66;4936751;29;20202;-79
2021/06/16 08:25:15;;;;;;;4.95;1.30;;;;;;;-138.14;100.00;63448.66;4905265;29;20238;-81
2021/06/16 08:27:41;;;;;;;3.13;1.40;;;;;;;-138.14;100.00;63448.66;4921855;29;20277;-79
2021/06/16 08:30:15;;;;;;;2.25;1.33;;;;;;;-138.14;100.00;63448.66;4921131;29;20191;-80
2021/06/16 08:32:44;;;;;;;1.80;1.30;;;;;;;-138.14;100.00;63448.66;4920607;29;20203;-81
2021/06/16 08:35:16;;;;;;;1.60;1.27;;;;;;;-138.14;100.00;63448.66;4922334;29;20247;-81
2021/06/16 08:37:42;;;;;;;3.80;1.52;;;;;;;-138.14;100.00;63448.66;4936894;29;20187;-81
2021/06/16 08:40:11;;;;;;;2.33;1.30;;;;;;;-138.14;100.00;63448.66;4919767;29;20199;-80
2021/06/16 08:42:40;;;;;;;1.95;1.48;;;;;;;-138.14;100.00;63448.66;4937156;29;20207;-81
2021/06/16 08:45:06;;;;;;;4.05;1.60;;;;;;;-138.14;100.00;63448.66;4922882;29;20183;-80
2021/06/16 08:47:33;;;;;;;1.83;1.35;;;;;;;-138.14;100.00;63448.66;4921446;29;20290;-80
2021/06/16 08:50:08;;;;;;;2.13;1.40;;;;;;;-138.14;100.00;63448.66;4954010;28;20183;-81
2021/06/16 08:52:33;;;;;;;3.90;1.40;;;;;;;-138.14;100.00;63448.66;4906003;29;20725;-79
2021/06/16 08:55:08;;;;;;;4.78;1.50;;;;;;;-138.14;100.00;63448.66;4904619;29;20314;-80
2021/06/16 08:57:34;;;;;;;3.63;1.60;;;;;;;-138.14;100.00;63448.66;4920766;29;20217;-81
2021/06/16 09:00:06;;;;;;;1.92;1.48;;;;;;;-138.14;100.00;63448.66;4934637;29;20187;-80
2021/06/16 09:02:35;;;;;;;1.90;1.40;;;;;;;-138.14;100.00;63448.66;4935657;29;20207;-81
2021/06/16 09:05:03;;;;;;;3.22;1.67;;;;;;;-138.14;100.00;63448.66;4936308;29;20183;-80
2021/06/16 09:07:31;;;;;;;3.70;1.40;;;;;;;-138.14;100.00;63448.66;4936554;29;20212;-82
2021/06/16 09:10:10;;;;;;;3.05;1.52;;;;;;;-138.14;100.00;63448.66;4921167;28;20190;-79
2021/06/16 09:12:43;;;;;;;2.83;1.50;;;;;;;-138.14;100.00;63448.66;4938787;28;20206;-78
2021/06/16 09:15:19;;;;;;;2.55;1.80;;;;;;;-138.14;100.00;63448.66;4938849;28;20206;-79
2021/06/16 09:17:59;;;;;;;3.08;1.42;;;;;;;-138.14;100.00;63448.66;4940977;28;20200;-81
2021/06/16 09:20:28;;;;;;;2.92;1.65;;;;;;;-138.14;100.00;63448.66;4953647;28;20190;-79
2021/06/16 09:23:19;;;;;;;2.22;1.38;;;;;;;-138.14;100.00;63448.66;4921789;28;20688;-78
2021/06/16 09:26:18;;;;;;;3.88;1.30;;;;;;;-138.14;100.00;63448.66;4954515;28;20194;-78
2021/06/16 09:28:51;;;;;;;2.85;1.40;;;;;;;-138.14;100.00;63448.66;4951911;28;20216;-80
2021/06/16 09:31:20;;;;;;;2.90;1.30;;;;;;;-138.14;100.00;63448.66;4952288;28;20217;-80
2021/06/16 09:33:54;;;;;;;2.13;1.45;;;;;;;-138.14;100.00;63448.66;4919616;29;20211;-79
2021/06/16 09:36:29;;;;;;;3.33;1.30;;;;;;;-138.14;100.00;63448.66;4950066;29;20662;-79
2021/06/16 09:39:01;;;;;;;1.65;1.30;;;;;;;-138.14;100.00;63448.66;4933274;29;20253;-78
2021/06/16 09:41:29;;;;;;;3.03;1.30;;;;;;;-138.14;100.00;63448.66;4932835;29;20262;-78
2021/06/16 09:43:56;;;;;;;1.50;1.38;;;;;;;-138.14;100.00;63448.66;4918195;29;20182;-79
2021/06/16 09:46:24;;;;;;;2.25;1.25;;;;;;;-138.14;100.00;63448.66;4932841;29;20206;-78
2021/06/16 09:48:50;;;;;;;1.73;1.20;;;;;;;-138.14;100.00;63448.66;4916978;29;20186;-76
2021/06/16 09:51:28;;;;;;;2.70;1.33;;;;;;;-138.14;100.00;63448.66;4931591;29;20678;-75
2021/06/16 09:54:17;;;;;;;2.22;1.30;;;;;;;-138.14;100.00;63448.66;4900962;29;20225;-75
2021/06/16 09:56:50;;;;;;;3.17;1.60;;;;;;;-138.14;100.00;63448.66;4932289;29;20662;-74
2021/06/16 09:59:42;;;;;;;4.07;2.28;;;;;;;-138.14;100.00;63448.66;4947379;29;20671;-74
2021/06/16 10:02:15;;;;;;;2.85;1.50;;;;;;;-138.14;100.00;63448.66;4931076;29;20210;-74
2021/06/16 10:04:44;;;;;;;2.15;1.48;;;;;;;-138.14;100.00;63448.66;4931489;29;20849;-74
2021/06/16 10:07:10;;;;;;;2.53;1.48;;;;;;;-138.14;100.00;63448.66;4947367;29;20219;-74
2021/06/16 10:09:38;;;;;;;3.08;1.50;;;;;;;-138.14;100.00;63448.66;4930992;29;20190;-75
2021/06/16 10:12:05;;;;;;;1.95;1.23;;;;;;;-138.14;100.00;63448.66;4946223;28;20234;-74
2021/06/16 10:14:35;;;;;;;1.50;1.35;;;;;;;-138.14;100.00;63448.66;4925035;28;20265;-75
2021/06/16 10:17:05;;;;;;;2.08;1.48;;;;;;;-138.14;100.00;63448.66;4917046;28;20194;-74
2021/06/16 10:19:30;;;;;;;2.05;1.40;;;;;;;-138.14;100.00;63448.66;4942048;29;20674;-75
2021/06/16 10:21:56;;;;;;;1.73;1.40;;;;;;;-138.14;100.00;63448.66;4914254;29;20218;-74
2021/06/16 10:24:22;;;;;;;3.28;1.67;;;;;;;-138.14;100.00;63448.66;4915147;29;20206;-75
2021/06/16 10:26:58;;;;;;;1.98;1.80;;;;;;;-138.14;100.00;63448.66;4915489;28;20195;-74
2021/06/16 10:29:29;;;;;;;4.60;3.83;;;;;;;-138.14;100.00;63448.66;4915722;29;20192;-75
2021/06/16 10:31:55;;;;;;;3.75;2.45;;;;;;;-138.14;100.00;63448.66;4899059;29;20199;-74
2021/06/16 10:34:21;;;;;;;2.00;1.70;;;;;;;-138.14;100.00;63448.66;4914799;29;20238;-73
2021/06/16 10:37:02;;;;;;;3.88;1.95;;;;;;;-138.14;100.00;63448.66;4914552;29;20278;-77
2021/06/16 10:39:30;;;;;;;10.38;9.27;;;;;;;-138.14;100.00;63448.66;4901024;29;20190;-77
2021/06/16 10:42:00;;;;;;;5.78;2.38;;;;;;;-138.14;100.00;63448.66;4917974;29;20203;-77
2021/06/16 10:44:30;;;;;;;4.28;1.92;;;;;;;-138.14;100.00;63448.66;4931148;29;20183;-78
2021/06/16 10:47:05;;;;;;;3.22;1.75;;;;;;;-138.14;100.00;63448.66;4945710;28;20194;-74
2021/06/16 10:49:33;;;;;;;4.30;1.75;;;;;;;-138.14;100.00;63448.66;4948854;28;20194;-78
2021/06/16 10:52:04;;;;;;;3.13;1.60;;;;;;;-138.14;100.00;63448.66;4947727;28;20237;-77
2021/06/16 10:54:30;;;;;;;2.75;1.60;;;;;;;-138.14;100.00;63448.66;4935482;28;20273;-78
2021/06/16 10:57:05;;;;;;;2.20;1.90;;;;;;;-138.14;100.00;63448.66;4934912;28;20186;-78
2021/06/16 10:59:46;;;;;;;4.75;1.70;;;;;;;-138.14;100.00;63448.66;4969920;28;20732;-79
2021/06/16 11:02:39;;;;;;;2.00;1.70;;;;;;;-138.14;100.00;63448.66;4947915;29;20217;-79
2021/06/16 11:05:30;;;;;;;4.90;1.70;;;;;;;-138.14;100.00;63448.66;4931089;29;20190;-79
2021/06/16 11:07:56;;;;;;;2.30;1.70;;;;;;;-138.14;100.00;63448.66;4911441;28;20191;-77
2021/06/16 11:10:24;;;;;;;2.08;1.50;;;;;;;-138.14;100.00;63448.66;4928057;29;20202;-78
2021/06/16 11:12:54;;;;;;;3.90;1.52;;;;;;;-138.14;100.00;63448.66;4918937;28;20218;-79
2021/06/16 11:15:24;;;;;;;2.35;1.60;;;;;;;-138.14;100.00;63448.66;4931650;28;21714;-78
2021/06/16 11:17:54;;;;;;;1.70;1.60;;;;;;;-138.14;100.00;63448.66;4965575;28;20218;-77